Terminal Aerodrome Forecast
Issued by NWS

Home | Current Version | Previous Version | Graphics & Text | Print | Product List | Glossary On
Versions: 1 2 3 4 5 6 7 8 9 10 11 12 13 14 15 16 17 18 19
794
FTUS41 KCLE 182004 AAA
TAFFDY
TAF AMD
KFDY 182004Z 1820/1918 24008KT P6SM OVC008
      TEMPO 1820/1823 6SM HZ OVC005
     FM190700 23007KT 5SM BR OVC009
     FM191300 22005KT P6SM OVC010
     FM191500 21005KT P6SM SCT012=

USA.gov is the U.S. government's official web portal to all federal, state and local government web resources and services.